Time,TemperatureF,DewpointF,PressureIn,WindDirection,WindDirectionDegrees,WindSpeedMPH,WindSpeedGustMPH,Humidity,HourlyPrecipIn,Conditions,Clouds,dailyrainin,SoftwareType,DateUTC
2013-06-15 00:01:00,61.0,58.4,30.08,NNE,28,0.0,0.0,91,0.00,,,0.00,Wunderground v.1.13,2013-06-15 04:01:00,
2013-06-15 00:02:00,60.9,58.3,30.08,NNE,28,0.0,0.0,91,0.00,,,0.00,Wunderground v.1.13,2013-06-15 04:02:00,
2013-06-15 00:03:00,60.9,58.3,30.08,NNE,28,0.0,0.0,91,0.00,,,0.00,Wunderground v.1.13,2013-06-15 04:03:00,
2013-06-15 00:04:00,60.9,58.3,30.08,NNE,28,0.0,0.0,91,0.00,,,0.00,Wunderground v.1.13,2013-06-15 04:04:00,
2013-06-15 00:10:00,60.8,58.2,30.08,NNE,28,0.0,0.0,91,0.00,,,0.00,Wunderground v.1.13,2013-06-15 04:10:00,
2013-06-15 00:15:00,60.7,58.1,30.08,NNE,28,0.0,0.0,91,0.00,,,0.00,Wunderground v.1.13,2013-06-15 04:15:00,
2013-06-15 00:19:00,60.7,58.1,30.08,NNE,28,0.0,0.0,91,0.00,,,0.00,Wunderground v.1.13,2013-06-15 04:19:00,
2013-06-15 00:24:00,60.6,58.0,30.09,NNE,28,0.0,0.0,91,0.00,,,0.00,Wunderground v.1.13,2013-06-15 04:24:00,
2013-06-15 00:30:00,60.4,58.1,30.09,NNE,28,0.0,0.0,92,0.00,,,0.00,Wunderground v.1.13,2013-06-15 04:30:00,
2013-06-15 00:35:00,60.2,57.9,30.09,NNE,28,0.0,0.0,92,0.00,,,0.00,Wunderground v.1.13,2013-06-15 04:35:00,
2013-06-15 00:41:00,60.0,57.7,30.09,NNE,28,0.0,0.0,92,0.00,,,0.00,Wunderground v.1.13,2013-06-15 04:41:00,
2013-06-15 00:46:00,59.9,57.6,30.09,NNE,28,0.0,0.0,92,0.00,,,0.00,Wunderground v.1.13,2013-06-15 04:46:00,
2013-06-15 00:52:00,59.8,57.5,30.09,NNE,28,0.0,0.0,92,0.00,,,0.00,Wunderground v.1.13,2013-06-15 04:52:00,
2013-06-15 00:57:00,59.6,57.3,30.09,NNE,28,0.0,0.0,92,0.00,,,0.00,Wunderground v.1.13,2013-06-15 04:57:00,
2013-06-15 01:03:00,59.5,57.2,30.09,NNE,28,0.0,0.0,92,0.00,,,0.00,Wunderground v.1.13,2013-06-15 05:03:00,
2013-06-15 01:08:00,59.4,57.1,30.09,NNE,28,0.0,0.0,92,0.00,,,0.00,Wunderground v.1.13,2013-06-15 05:08:00,
2013-06-15 01:14:00,59.3,57.3,30.09,NNE,28,0.0,0.0,93,0.00,,,0.00,Wunderground v.1.13,2013-06-15 05:14:00,
2013-06-15 01:19:00,59.0,57.0,30.10,NNE,28,0.0,0.0,93,0.00,,,0.00,Wunderground v.1.13,2013-06-15 05:19:00,
2013-06-15 01:25:00,59.0,57.0,30.09,NNE,28,0.0,0.0,93,0.00,,,0.00,Wunderground v.1.13,2013-06-15 05:25:00,
2013-06-15 01:30:00,59.0,57.0,30.09,NNE,28,0.0,0.0,93,0.00,,,0.00,Wunderground v.1.13,2013-06-15 05:30:00,
2013-06-15 01:36:00,59.0,57.0,30.09,NNE,28,0.0,0.0,93,0.00,,,0.00,Wunderground v.1.13,2013-06-15 05:36:00,
2013-06-15 01:42:00,59.0,57.0,30.09,NNE,28,0.0,0.0,93,0.00,,,0.00,Wunderground v.1.13,2013-06-15 05:42:00,
2013-06-15 01:47:00,59.0,57.0,30.09,NNE,28,0.0,0.0,93,0.00,,,0.00,Wunderground v.1.13,2013-06-15 05:47:00,
2013-06-15 01:53:00,58.8,56.8,30.09,NNE,28,0.0,0.0,93,0.00,,,0.00,Wunderground v.1.13,2013-06-15 05:53:00,
2013-06-15 01:59:00,58.7,56.7,30.09,NNE,28,0.0,0.0,93,0.00,,,0.00,Wunderground v.1.13,2013-06-15 05:59:00,
2013-06-15 02:05:00,58.6,56.9,30.09,NNE,28,0.0,0.0,94,0.00,,,0.00,Wunderground v.1.13,2013-06-15 06:05:00,
2013-06-15 02:10:00,58.6,56.6,30.09,NNE,28,0.0,0.0,93,0.00,,,0.00,Wunderground v.1.13,2013-06-15 06:10:00,
2013-06-15 02:16:00,58.5,56.5,30.09,NNE,28,0.0,0.0,93,0.00,,,0.00,Wunderground v.1.13,2013-06-15 06:16:00,
2013-06-15 02:22:00,58.3,56.3,30.09,NNE,28,0.0,0.0,93,0.00,,,0.00,Wunderground v.1.13,2013-06-15 06:22:00,
2013-06-15 02:28:00,58.0,56.3,30.09,NNE,28,0.0,0.0,94,0.00,,,0.00,Wunderground v.1.13,2013-06-15 06:28:00,
2013-06-15 02:34:00,57.8,55.8,30.08,NNE,28,0.0,0.0,93,0.00,,,0.00,Wunderground v.1.13,2013-06-15 06:34:00,
2013-06-15 02:40:00,57.7,55.7,30.08,NNE,28,0.0,0.0,93,0.00,,,0.00,Wunderground v.1.13,2013-06-15 06:40:00,
2013-06-15 02:45:00,57.6,55.6,30.08,NNE,28,0.0,0.0,93,0.00,,,0.00,Wunderground v.1.13,2013-06-15 06:45:00,
2013-06-15 02:51:00,57.5,55.8,30.08,NNE,28,0.0,0.0,94,0.00,,,0.00,Wunderground v.1.13,2013-06-15 06:51:00,
2013-06-15 02:57:00,57.4,55.7,30.08,NNE,28,0.0,0.0,94,0.00,,,0.00,Wunderground v.1.13,2013-06-15 06:57:00,
2013-06-15 03:03:00,57.2,55.5,30.08,NNE,28,0.0,0.0,94,0.00,,,0.00,Wunderground v.1.13,2013-06-15 07:03:00,
2013-06-15 03:08:00,57.1,55.4,30.08,NNE,28,0.0,0.0,94,0.00,,,0.00,Wunderground v.1.13,2013-06-15 07:08:00,
2013-06-15 03:14:00,57.1,55.4,30.08,NNE,28,0.0,0.0,94,0.00,,,0.00,Wunderground v.1.13,2013-06-15 07:14:00,
2013-06-15 03:20:00,56.9,55.2,30.08,NNE,28,0.0,0.0,94,0.00,,,0.00,Wunderground v.1.13,2013-06-15 07:20:00,
2013-06-15 03:26:00,56.7,55.0,30.08,NNE,28,0.0,0.0,94,0.00,,,0.00,Wunderground v.1.13,2013-06-15 07:26:00,
2013-06-15 03:32:00,56.6,54.9,30.08,NNE,28,0.0,0.0,94,0.00,,,0.00,Wunderground v.1.13,2013-06-15 07:32:00,
2013-06-15 03:38:00,56.5,54.8,30.08,NNE,28,0.0,0.0,94,0.00,,,0.00,Wunderground v.1.13,2013-06-15 07:38:00,
2013-06-15 03:43:00,56.4,54.7,30.08,NNE,28,0.0,0.0,94,0.00,,,0.00,Wunderground v.1.13,2013-06-15 07:43:00,
2013-06-15 03:49:00,56.2,54.5,30.08,NNE,28,0.0,0.0,94,0.00,,,0.00,Wunderground v.1.13,2013-06-15 07:49:00,
2013-06-15 03:55:00,56.1,54.4,30.08,NNE,28,0.0,0.0,94,0.00,,,0.00,Wunderground v.1.13,2013-06-15 07:55:00,
2013-06-15 04:00:00,56.0,54.3,30.08,NNE,28,0.0,0.0,94,0.00,,,0.00,Wunderground v.1.13,2013-06-15 08:00:00,
2013-06-15 04:06:00,55.8,54.1,30.08,NNE,28,0.0,0.0,94,0.00,,,0.00,Wunderground v.1.13,2013-06-15 08:06:00,
2013-06-15 04:12:00,55.7,54.0,30.08,NNE,28,0.0,0.0,94,0.00,,,0.00,Wunderground v.1.13,2013-06-15 08:12:00,
2013-06-15 04:18:00,55.6,53.9,30.08,NNE,28,0.0,0.0,94,0.00,,,0.00,Wunderground v.1.13,2013-06-15 08:18:00,
2013-06-15 04:23:00,55.5,53.8,30.08,NNE,28,0.0,0.0,94,0.00,,,0.00,Wunderground v.1.13,2013-06-15 08:23:00,
2013-06-15 04:29:00,55.4,53.7,30.08,NNE,28,0.0,0.0,94,0.00,,,0.00,Wunderground v.1.13,2013-06-15 08:29:00,
2013-06-15 04:35:00,55.3,53.6,30.09,NNE,28,0.0,0.0,94,0.00,,,0.00,Wunderground v.1.13,2013-06-15 08:35:00,
2013-06-15 04:40:00,55.2,53.5,30.09,NNE,28,0.0,0.0,94,0.00,,,0.00,Wunderground v.1.13,2013-06-15 08:40:00,
2013-06-15 04:46:00,55.1,53.4,30.09,NNE,28,0.0,0.0,94,0.00,,,0.00,Wunderground v.1.13,2013-06-15 08:46:00,
2013-06-15 04:51:00,55.0,53.6,30.09,NNE,28,0.0,0.0,95,0.00,,,0.00,Wunderground v.1.13,2013-06-15 08:51:00,
2013-06-15 04:57:00,55.0,53.6,30.09,NNE,28,0.0,0.0,95,0.00,,,0.00,Wunderground v.1.13,2013-06-15 08:57:00,
2013-06-15 05:02:00,55.0,53.6,30.10,NNE,28,0.0,0.0,95,0.00,,,0.00,Wunderground v.1.13,2013-06-15 09:02:00,
2013-06-15 05:08:00,54.9,53.5,30.11,NNE,28,0.0,0.0,95,0.00,,,0.00,Wunderground v.1.13,2013-06-15 09:08:00,
2013-06-15 05:13:00,54.8,53.4,30.11,NNE,28,0.0,0.0,95,0.00,,,0.00,Wunderground v.1.13,2013-06-15 09:13:00,
2013-06-15 05:19:00,54.8,53.4,30.12,NNE,28,0.0,0.0,95,0.00,,,0.00,Wunderground v.1.13,2013-06-15 09:19:00,
2013-06-15 05:24:00,54.8,53.4,30.11,NNE,28,0.0,0.0,95,0.00,,,0.00,Wunderground v.1.13,2013-06-15 09:24:00,
2013-06-15 05:30:00,54.8,53.4,30.11,NNE,28,0.0,0.0,95,0.00,,,0.00,Wunderground v.1.13,2013-06-15 09:30:00,
2013-06-15 05:36:00,54.7,53.3,30.11,NNE,28,0.0,0.0,95,0.00,,,0.00,Wunderground v.1.13,2013-06-15 09:36:00,
2013-06-15 05:42:00,54.7,53.3,30.12,NNE,28,0.0,0.0,95,0.00,,,0.00,Wunderground v.1.13,2013-06-15 09:42:00,
2013-06-15 05:47:00,54.7,53.3,30.12,NNE,28,0.0,0.0,95,0.00,,,0.00,Wunderground v.1.13,2013-06-15 09:47:00,
2013-06-15 05:53:00,54.7,53.3,30.12,NNE,28,0.0,0.0,95,0.00,,,0.00,Wunderground v.1.13,2013-06-15 09:53:00,
2013-06-15 05:58:00,54.7,53.3,30.12,NNE,28,0.0,0.0,95,0.00,,,0.00,Wunderground v.1.13,2013-06-15 09:58:00,
2013-06-15 06:03:00,54.7,53.3,30.12,NNE,28,0.0,0.0,95,0.00,,,0.00,Wunderground v.1.13,2013-06-15 10:03:00,
2013-06-15 06:09:00,54.7,53.3,30.13,NNE,28,0.0,0.0,95,0.00,,,0.00,Wunderground v.1.13,2013-06-15 10:09:00,
2013-06-15 06:15:00,54.7,53.3,30.13,NNE,28,0.0,0.0,95,0.00,,,0.00,Wunderground v.1.13,2013-06-15 10:15:00,
2013-06-15 06:20:00,54.7,53.3,30.13,NNE,28,0.0,0.0,95,0.00,,,0.00,Wunderground v.1.13,2013-06-15 10:20:00,
2013-06-15 06:26:00,54.7,53.6,30.13,NNE,28,0.0,0.0,96,0.00,,,0.00,Wunderground v.1.13,2013-06-15 10:26:00,
2013-06-15 06:31:00,54.7,53.6,30.13,NNE,28,0.0,0.0,96,0.00,,,0.00,Wunderground v.1.13,2013-06-15 10:31:00,
2013-06-15 06:37:00,54.8,53.7,30.13,NNE,28,0.0,0.0,96,0.00,,,0.00,Wunderground v.1.13,2013-06-15 10:37:00,
2013-06-15 06:43:00,54.8,53.7,30.14,NNE,28,0.0,0.0,96,0.00,,,0.00,Wunderground v.1.13,2013-06-15 10:43:00,
2013-06-15 06:49:00,54.9,53.8,30.14,NNE,28,0.0,0.0,96,0.00,,,0.00,Wunderground v.1.13,2013-06-15 10:49:00,
2013-06-15 06:54:00,55.2,54.1,30.14,NNE,28,0.0,0.0,96,0.00,,,0.00,Wunderground v.1.13,2013-06-15 10:54:00,
2013-06-15 07:00:00,55.4,54.3,30.14,NNE,28,0.0,0.0,96,0.00,,,0.00,Wunderground v.1.13,2013-06-15 11:00:00,
2013-06-15 07:06:00,55.7,54.9,30.14,NNE,28,0.0,0.0,97,0.00,,,0.00,Wunderground v.1.13,2013-06-15 11:06:00,
2013-06-15 07:11:00,56.2,55.4,30.14,NNE,28,0.0,0.0,97,0.00,,,0.00,Wunderground v.1.13,2013-06-15 11:11:00,
2013-06-15 07:17:00,56.8,56.0,30.14,East,84,0.0,0.0,97,0.00,,,0.00,Wunderground v.1.13,2013-06-15 11:17:00,
2013-06-15 07:23:00,57.7,57.1,30.14,NE,52,0.0,0.0,98,0.00,,,0.00,Wunderground v.1.13,2013-06-15 11:23:00,
2013-06-15 07:28:00,58.2,57.4,30.14,NE,52,0.0,0.0,97,0.00,,,0.00,Wunderground v.1.13,2013-06-15 11:28:00,
2013-06-15 07:34:00,58.7,57.9,30.14,NE,52,0.0,0.0,97,0.00,,,0.00,Wunderground v.1.13,2013-06-15 11:34:00,
2013-06-15 07:40:00,59.5,58.9,30.14,East,90,0.0,0.0,98,0.00,,,0.00,Wunderground v.1.13,2013-06-15 11:40:00,
2013-06-15 07:45:00,60.2,59.6,30.15,East,90,0.0,0.0,98,0.00,,,0.00,Wunderground v.1.13,2013-06-15 11:45:00,
2013-06-15 07:51:00,60.9,60.3,30.15,East,90,0.0,0.0,98,0.00,,,0.00,Wunderground v.1.13,2013-06-15 11:51:00,
2013-06-15 07:56:00,61.5,60.9,30.15,East,90,0.0,0.0,98,0.00,,,0.00,Wunderground v.1.13,2013-06-15 11:56:00,
2013-06-15 08:01:00,61.8,61.2,30.15,NE,56,0.0,0.0,98,0.00,,,0.00,Wunderground v.1.13,2013-06-15 12:01:00,
2013-06-15 08:07:00,62.0,61.1,30.15,ENE,61,0.0,1.0,97,0.00,,,0.00,Wunderground v.1.13,2013-06-15 12:07:00,
2013-06-15 08:13:00,62.3,61.4,30.15,ENE,61,0.0,0.0,97,0.00,,,0.00,Wunderground v.1.13,2013-06-15 12:13:00,
2013-06-15 08:18:00,62.9,62.0,30.15,ENE,61,0.0,2.0,97,0.00,,,0.00,Wunderground v.1.13,2013-06-15 12:18:00,
2013-06-15 08:24:00,63.8,62.6,30.15,ENE,61,0.0,0.0,96,0.00,,,0.00,Wunderground v.1.13,2013-06-15 12:24:00,
2013-06-15 08:29:00,64.5,63.0,30.15,ENE,61,0.0,0.0,95,0.00,,,0.00,Wunderground v.1.13,2013-06-15 12:29:00,
2013-06-15 08:34:00,65.2,63.1,30.15,ENE,61,0.0,0.0,93,0.00,,,0.00,Wunderground v.1.13,2013-06-15 12:34:00,
2013-06-15 08:40:00,66.3,63.0,30.15,East,94,0.0,0.0,89,0.00,,,0.00,Wunderground v.1.13,2013-06-15 12:40:00,
2013-06-15 08:45:00,67.1,61.8,30.16,ESE,123,0.0,5.0,83,0.00,,,0.00,Wunderground v.1.13,2013-06-15 12:45:00,
2013-06-15 08:51:00,67.6,61.2,30.16,ESE,116,1.0,4.0,80,0.00,,,0.00,Wunderground v.1.13,2013-06-15 12:51:00,
2013-06-15 08:57:00,68.1,61.7,30.16,ESE,121,1.0,2.0,80,0.00,,,0.00,Wunderground v.1.13,2013-06-15 12:57:00,
2013-06-15 09:02:00,68.5,61.4,30.16,ESE,119,1.0,1.0,78,0.00,,,0.00,Wunderground v.1.13,2013-06-15 13:02:00,
2013-06-15 09:07:00,69.0,61.9,30.16,ESE,120,0.0,2.0,78,0.00,,,0.00,Wunderground v.1.13,2013-06-15 13:07:00,
2013-06-15 09:13:00,69.7,62.2,30.16,ESE,116,0.0,2.0,77,0.00,,,0.00,Wunderground v.1.13,2013-06-15 13:13:00,
2013-06-15 09:18:00,70.3,62.0,30.17,ESE,115,0.0,2.0,75,0.00,,,0.00,Wunderground v.1.13,2013-06-15 13:18:00,
2013-06-15 09:24:00,71.0,62.3,30.17,ESE,108,0.0,1.0,74,0.00,,,0.00,Wunderground v.1.13,2013-06-15 13:24:00,
2013-06-15 09:30:00,71.5,62.0,30.17,ESE,107,0.0,0.0,72,0.00,,,0.00,Wunderground v.1.13,2013-06-15 13:30:00,
2013-06-15 09:35:00,71.8,61.9,30.17,ESE,109,0.0,0.0,71,0.00,,,0.00,Wunderground v.1.13,2013-06-15 13:35:00,
2013-06-15 09:40:00,71.9,62.0,30.17,ESE,117,1.0,3.0,71,0.00,,,0.00,Wunderground v.1.13,2013-06-15 13:40:00,
2013-06-15 09:46:00,72.2,61.5,30.17,ESE,116,1.0,1.0,69,0.00,,,0.00,Wunderground v.1.13,2013-06-15 13:46:00,
2013-06-15 09:51:00,72.7,61.9,30.17,ESE,116,0.0,0.0,69,0.00,,,0.00,Wunderground v.1.13,2013-06-15 13:51:00,
2013-06-15 09:57:00,73.0,61.8,30.17,ESE,116,0.0,1.0,68,0.00,,,0.00,Wunderground v.1.13,2013-06-15 13:57:00,
2013-06-15 10:02:00,73.1,61.9,30.16,ESE,109,1.0,4.0,68,0.00,,,0.00,Wunderground v.1.13,2013-06-15 14:02:00,
2013-06-15 10:07:00,73.8,62.2,30.17,ESE,108,1.0,3.0,67,0.00,,,0.00,Wunderground v.1.13,2013-06-15 14:07:00,
2013-06-15 10:13:00,74.2,62.1,30.16,ESE,110,1.0,4.0,66,0.00,,,0.00,Wunderground v.1.13,2013-06-15 14:13:00,
2013-06-15 10:19:00,74.7,63.0,30.16,ESE,110,0.0,1.0,67,0.00,,,0.00,Wunderground v.1.13,2013-06-15 14:19:00,
2013-06-15 10:24:00,75.2,62.2,30.16,ESE,107,0.0,1.0,64,0.00,,,0.00,Wunderground v.1.13,2013-06-15 14:24:00,
2013-06-15 10:30:00,75.8,61.4,30.16,East,96,1.0,2.0,61,0.00,,,0.00,Wunderground v.1.13,2013-06-15 14:30:00,
2013-06-15 10:36:00,76.3,61.9,30.16,East,96,1.0,1.0,61,0.00,,,0.00,Wunderground v.1.13,2013-06-15 14:36:00,
2013-06-15 10:41:00,76.8,62.3,30.15,East,97,0.0,4.0,61,0.00,,,0.00,Wunderground v.1.13,2013-06-15 14:41:00,
2013-06-15 10:47:00,77.0,62.5,30.15,East,101,1.0,5.0,61,0.00,,,0.00,Wunderground v.1.13,2013-06-15 14:47:00,
2013-06-15 10:53:00,77.5,63.0,30.15,ESE,103,1.0,2.0,61,0.00,,,0.00,Wunderground v.1.13,2013-06-15 14:53:00,
2013-06-15 10:58:00,77.7,62.2,30.15,East,98,1.0,1.0,59,0.00,,,0.00,Wunderground v.1.13,2013-06-15 14:58:00,
2013-06-15 11:03:00,77.7,62.7,30.15,East,101,1.0,3.0,60,0.00,,,0.00,Wunderground v.1.13,2013-06-15 15:03:00,
2013-06-15 11:09:00,78.1,62.1,30.15,East,101,0.0,2.0,58,0.00,,,0.00,Wunderground v.1.13,2013-06-15 15:09:00,
2013-06-15 11:14:00,79.0,62.5,30.15,East,101,0.0,0.0,57,0.00,,,0.00,Wunderground v.1.13,2013-06-15 15:14:00,
2013-06-15 11:20:00,78.7,63.2,30.15,ESE,103,0.0,0.0,59,0.00,,,0.00,Wunderground v.1.13,2013-06-15 15:20:00,
2013-06-15 11:26:00,79.5,62.4,30.15,ESE,103,0.0,1.0,56,0.00,,,0.00,Wunderground v.1.13,2013-06-15 15:26:00,
2013-06-15 11:31:00,80.5,62.3,30.15,ESE,103,0.0,0.0,54,0.00,,,0.00,Wunderground v.1.13,2013-06-15 15:31:00,
2013-06-15 11:37:00,81.5,63.3,30.15,ESE,103,0.0,0.0,54,0.00,,,0.00,Wunderground v.1.13,2013-06-15 15:37:00,
2013-06-15 11:43:00,82.6,63.2,30.15,East,97,0.0,1.0,52,0.00,,,0.00,Wunderground v.1.13,2013-06-15 15:43:00,
2013-06-15 11:48:00,82.5,62.5,30.15,East,95,1.0,2.0,51,0.00,,,0.00,Wunderground v.1.13,2013-06-15 15:48:00,
2013-06-15 11:54:00,82.2,63.4,30.15,East,95,0.0,1.0,53,0.00,,,0.00,Wunderground v.1.13,2013-06-15 15:54:00,
2013-06-15 11:59:00,82.0,62.6,30.15,East,95,0.0,1.0,52,0.00,,,0.00,Wunderground v.1.13,2013-06-15 15:59:00,
2013-06-15 12:05:00,82.0,63.7,30.15,ESE,121,1.0,2.0,54,0.00,,,0.00,Wunderground v.1.13,2013-06-15 16:05:00,
2013-06-15 12:11:00,82.6,63.2,30.15,SE,140,2.0,5.0,52,0.00,,,0.00,Wunderground v.1.13,2013-06-15 16:11:00,
2013-06-15 12:17:00,82.8,62.8,30.15,SE,140,2.0,2.0,51,0.00,,,0.00,Wunderground v.1.13,2013-06-15 16:17:00,
2013-06-15 12:22:00,83.0,65.2,30.15,SSE,155,1.0,3.0,55,0.00,,,0.00,Wunderground v.1.13,2013-06-15 16:22:00,
2013-06-15 12:28:00,83.4,65.5,30.14,SSE,168,1.0,3.0,55,0.00,,,0.00,Wunderground v.1.13,2013-06-15 16:28:00,
2013-06-15 12:33:00,83.5,65.1,30.14,NW,313,2.0,4.0,54,0.00,,,0.00,Wunderground v.1.13,2013-06-15 16:33:00,
2013-06-15 12:38:00,83.9,64.4,30.14,NW,309,2.0,3.0,52,0.00,,,0.00,Wunderground v.1.13,2013-06-15 16:38:00,
2013-06-15 12:44:00,83.2,62.1,30.14,NNE,32,3.0,9.0,49,0.00,,,0.00,Wunderground v.1.13,2013-06-15 16:44:00,
2013-06-15 12:49:00,83.0,62.4,30.14,North,11,3.0,4.0,50,0.00,,,0.00,Wunderground v.1.13,2013-06-15 16:49:00,
2013-06-15 12:55:00,83.8,62.0,30.14,North,355,2.0,4.0,48,0.00,,,0.00,Wunderground v.1.13,2013-06-15 16:55:00,
2013-06-15 13:01:00,84.5,62.1,30.14,North,350,2.0,4.0,47,0.00,,,0.00,Wunderground v.1.13,2013-06-15 17:01:00,
2013-06-15 13:07:00,85.0,63.7,30.14,NNW,329,3.0,3.0,49,0.00,,,0.00,Wunderground v.1.13,2013-06-15 17:07:00,
2013-06-15 13:12:00,85.9,62.1,30.14,NW,315,2.0,4.0,45,0.00,,,0.00,Wunderground v.1.13,2013-06-15 17:12:00,
2013-06-15 13:18:00,85.3,63.4,30.14,West,273,3.0,3.0,48,0.00,,,0.00,Wunderground v.1.13,2013-06-15 17:18:00,
2013-06-15 13:24:00,85.2,62.7,30.14,NW,320,1.0,4.0,47,0.00,,,0.00,Wunderground v.1.13,2013-06-15 17:24:00,
2013-06-15 13:29:00,84.4,63.2,30.14,NW,323,1.0,1.0,49,0.00,,,0.00,Wunderground v.1.13,2013-06-15 17:29:00,
2013-06-15 13:35:00,84.9,64.8,30.14,WSW,243,2.0,6.0,51,0.00,,,0.00,Wunderground v.1.13,2013-06-15 17:35:00,
2013-06-15 13:41:00,84.7,63.4,30.13,SW,234,6.0,6.0,49,0.00,,,0.00,Wunderground v.1.13,2013-06-15 17:41:00,
2013-06-15 13:46:00,84.4,63.2,30.13,SW,231,5.0,5.0,49,0.00,,,0.00,Wunderground v.1.13,2013-06-15 17:46:00,
2013-06-15 13:52:00,84.3,63.1,30.13,West,267,2.0,5.0,49,0.00,,,0.00,Wunderground v.1.13,2013-06-15 17:52:00,
2013-06-15 13:57:00,84.4,63.7,30.13,WNW,292,3.0,11.0,50,0.00,,,0.00,Wunderground v.1.13,2013-06-15 17:57:00,
2013-06-15 14:02:00,84.4,63.7,30.13,NW,310,4.0,8.0,50,0.00,,,0.00,Wunderground v.1.13,2013-06-15 18:02:00,
2013-06-15 14:08:00,83.8,62.6,30.12,NNW,328,5.0,6.0,49,0.00,,,0.00,Wunderground v.1.13,2013-06-15 18:08:00,
2013-06-15 14:14:00,83.8,63.2,30.13,NNW,336,4.0,6.0,50,0.00,,,0.00,Wunderground v.1.13,2013-06-15 18:14:00,
2013-06-15 14:19:00,84.1,62.9,30.13,NW,304,5.0,11.0,49,0.00,,,0.00,Wunderground v.1.13,2013-06-15 18:19:00,
2013-06-15 14:25:00,83.8,63.7,30.13,NW,317,6.0,6.0,51,0.00,,,0.00,Wunderground v.1.13,2013-06-15 18:25:00,
2013-06-15 14:30:00,84.8,64.7,30.12,NW,304,3.0,5.0,51,0.00,,,0.00,Wunderground v.1.13,2013-06-15 18:30:00,
2013-06-15 14:36:00,85.4,63.5,30.13,WNW,288,4.0,7.0,48,0.00,,,0.00,Wunderground v.1.13,2013-06-15 18:36:00,
2013-06-15 14:41:00,85.1,62.6,30.12,WNW,298,6.0,6.0,47,0.00,,,0.00,Wunderground v.1.13,2013-06-15 18:41:00,
2013-06-15 14:47:00,84.6,63.9,30.12,WNW,288,6.0,6.0,50,0.00,,,0.00,Wunderground v.1.13,2013-06-15 18:47:00,
2013-06-15 14:52:00,84.9,63.0,30.12,WNW,286,4.0,4.0,48,0.00,,,0.00,Wunderground v.1.13,2013-06-15 18:52:00,
2013-06-15 14:58:00,85.6,64.2,30.12,West,270,3.0,5.0,49,0.00,,,0.00,Wunderground v.1.13,2013-06-15 18:58:00,
2013-06-15 15:03:00,85.6,63.7,30.11,WSW,248,5.0,6.0,48,0.00,,,0.00,Wunderground v.1.13,2013-06-15 19:03:00,
2013-06-15 15:09:00,85.8,63.8,30.11,WSW,237,3.0,7.0,48,0.00,,,0.00,Wunderground v.1.13,2013-06-15 19:09:00,
2013-06-15 15:14:00,85.5,63.6,30.11,WSW,241,3.0,5.0,48,0.00,,,0.00,Wunderground v.1.13,2013-06-15 19:14:00,
2013-06-15 15:20:00,85.4,63.5,30.11,WSW,255,3.0,3.0,48,0.00,,,0.00,Wunderground v.1.13,2013-06-15 19:20:00,
2013-06-15 15:25:00,85.8,65.0,30.11,West,262,4.0,5.0,50,0.00,,,0.00,Wunderground v.1.13,2013-06-15 19:25:00,
2013-06-15 15:31:00,85.7,62.5,30.11,WNW,296,6.0,7.0,46,0.00,,,0.00,Wunderground v.1.13,2013-06-15 19:31:00,
2013-06-15 15:36:00,85.5,63.6,30.11,WNW,292,5.0,6.0,48,0.00,,,0.00,Wunderground v.1.13,2013-06-15 19:36:00,
2013-06-15 15:41:00,85.5,63.6,30.11,WSW,248,4.0,4.0,48,0.00,,,0.00,Wunderground v.1.13,2013-06-15 19:41:00,
2013-06-15 15:47:00,85.1,63.2,30.10,WSW,244,3.0,3.0,48,0.00,,,0.00,Wunderground v.1.13,2013-06-15 19:47:00,
2013-06-15 15:53:00,85.1,64.4,30.10,West,271,4.0,6.0,50,0.00,,,0.00,Wunderground v.1.13,2013-06-15 19:53:00,
2013-06-15 15:58:00,85.3,62.8,30.10,West,281,5.0,7.0,47,0.00,,,0.00,Wunderground v.1.13,2013-06-15 19:58:00,
2013-06-15 16:03:00,85.2,63.3,30.10,West,275,6.0,7.0,48,0.00,,,0.00,Wunderground v.1.13,2013-06-15 20:03:00,
2013-06-15 16:09:00,85.3,62.8,30.09,WNW,294,6.0,7.0,47,0.00,,,0.00,Wunderground v.1.13,2013-06-15 20:09:00,
2013-06-15 16:14:00,85.4,64.1,30.09,West,267,5.0,6.0,49,0.00,,,0.00,Wunderground v.1.13,2013-06-15 20:14:00,
2013-06-15 16:20:00,85.8,64.4,30.09,West,263,4.0,7.0,49,0.00,,,0.00,Wunderground v.1.13,2013-06-15 20:20:00,
2013-06-15 16:26:00,85.9,63.9,30.09,WSW,240,5.0,5.0,48,0.00,,,0.00,Wunderground v.1.13,2013-06-15 20:26:00,
2013-06-15 16:31:00,85.9,63.9,30.08,SW,226,4.0,5.0,48,0.00,,,0.00,Wunderground v.1.13,2013-06-15 20:31:00,
2013-06-15 16:37:00,85.7,63.1,30.08,WNW,295,5.0,6.0,47,0.00,,,0.00,Wunderground v.1.13,2013-06-15 20:37:00,
2013-06-15 16:42:00,85.8,64.4,30.08,WNW,289,4.0,6.0,49,0.00,,,0.00,Wunderground v.1.13,2013-06-15 20:42:00,
2013-06-15 16:48:00,85.9,63.3,30.08,West,279,4.0,9.0,47,0.00,,,0.00,Wunderground v.1.13,2013-06-15 20:48:00,
2013-06-15 16:53:00,85.9,63.3,30.07,West,278,4.0,5.0,47,0.00,,,0.00,Wunderground v.1.13,2013-06-15 20:53:00,
2013-06-15 16:59:00,85.9,62.7,30.08,WSW,237,3.0,7.0,46,0.00,,,0.00,Wunderground v.1.13,2013-06-15 20:59:00,
2013-06-15 17:05:00,85.4,63.5,30.08,WSW,238,5.0,5.0,48,0.00,,,0.00,Wunderground v.1.13,2013-06-15 21:05:00,
2013-06-15 17:11:00,85.2,62.7,30.07,West,267,4.0,5.0,47,0.00,,,0.00,Wunderground v.1.13,2013-06-15 21:11:00,
2013-06-15 17:16:00,85.4,62.9,30.07,WNW,284,4.0,5.0,47,0.00,,,0.00,Wunderground v.1.13,2013-06-15 21:16:00,
2013-06-15 17:22:00,85.4,62.9,30.07,WNW,284,5.0,7.0,47,0.00,,,0.00,Wunderground v.1.13,2013-06-15 21:22:00,
2013-06-15 17:27:00,85.2,62.7,30.07,WSW,246,5.0,6.0,47,0.00,,,0.00,Wunderground v.1.13,2013-06-15 21:27:00,
2013-06-15 17:32:00,85.1,63.2,30.07,West,265,4.0,5.0,48,0.00,,,0.00,Wunderground v.1.13,2013-06-15 21:32:00,
2013-06-15 17:38:00,85.2,63.3,30.07,West,265,3.0,5.0,48,0.00,,,0.00,Wunderground v.1.13,2013-06-15 21:38:00,
2013-06-15 17:43:00,85.3,62.8,30.07,West,265,3.0,3.0,47,0.00,,,0.00,Wunderground v.1.13,2013-06-15 21:43:00,
2013-06-15 17:49:00,85.2,63.9,30.07,West,279,5.0,13.0,49,0.00,,,0.00,Wunderground v.1.13,2013-06-15 21:49:00,
2013-06-15 17:55:00,85.3,63.4,30.07,West,275,5.0,5.0,48,0.00,,,0.00,Wunderground v.1.13,2013-06-15 21:55:00,
2013-06-15 18:00:00,85.2,63.9,30.07,West,275,4.0,4.0,49,0.00,,,0.00,Wunderground v.1.13,2013-06-15 22:00:00,
2013-06-15 18:06:00,85.2,63.9,30.07,West,275,3.0,3.0,49,0.00,,,0.00,Wunderground v.1.13,2013-06-15 22:06:00,
2013-06-15 18:12:00,85.2,62.7,30.07,West,278,3.0,6.0,47,0.00,,,0.00,Wunderground v.1.13,2013-06-15 22:12:00,
2013-06-15 18:17:00,85.0,63.1,30.07,West,275,5.0,5.0,48,0.00,,,0.00,Wunderground v.1.13,2013-06-15 22:17:00,
2013-06-15 18:23:00,85.0,63.7,30.06,West,275,4.0,5.0,49,0.00,,,0.00,Wunderground v.1.13,2013-06-15 22:23:00,
2013-06-15 18:28:00,84.8,62.9,30.06,West,267,3.0,5.0,48,0.00,,,0.00,Wunderground v.1.13,2013-06-15 22:28:00,
2013-06-15 18:34:00,84.6,62.7,30.06,West,267,3.0,4.0,48,0.00,,,0.00,Wunderground v.1.13,2013-06-15 22:34:00,
2013-06-15 18:40:00,84.4,63.7,30.06,West,267,3.0,3.0,50,0.00,,,0.00,Wunderground v.1.13,2013-06-15 22:40:00,
2013-06-15 18:46:00,84.3,64.2,30.06,West,267,4.0,4.0,51,0.00,,,0.00,Wunderground v.1.13,2013-06-15 22:46:00,
2013-06-15 18:51:00,84.1,64.0,30.06,West,268,4.0,4.0,51,0.00,,,0.00,Wunderground v.1.13,2013-06-15 22:51:00,
2013-06-15 18:57:00,84.1,64.0,30.07,West,268,3.0,4.0,51,0.00,,,0.00,Wunderground v.1.13,2013-06-15 22:57:00,
2013-06-15 19:02:00,84.1,63.5,30.06,West,268,3.0,4.0,50,0.00,,,0.00,Wunderground v.1.13,2013-06-15 23:02:00,
2013-06-15 19:07:00,84.0,64.5,30.06,West,268,2.0,4.0,52,0.00,,,0.00,Wunderground v.1.13,2013-06-15 23:07:00,
2013-06-15 19:13:00,83.9,63.8,30.06,West,268,1.0,3.0,51,0.00,,,0.00,Wunderground v.1.13,2013-06-15 23:13:00,
2013-06-15 19:18:00,83.7,64.2,30.06,West,268,1.0,3.0,52,0.00,,,0.00,Wunderground v.1.13,2013-06-15 23:18:00,
2013-06-15 19:24:00,83.4,63.9,30.06,West,268,1.0,3.0,52,0.00,,,0.00,Wunderground v.1.13,2013-06-15 23:24:00,
2013-06-15 19:30:00,83.3,63.3,30.06,West,268,2.0,2.0,51,0.00,,,0.00,Wunderground v.1.13,2013-06-15 23:30:00,
2013-06-15 19:36:00,83.4,63.4,30.07,West,268,2.0,2.0,51,0.00,,,0.00,Wunderground v.1.13,2013-06-15 23:36:00,
2013-06-15 19:41:00,83.3,63.8,30.07,West,268,2.0,4.0,52,0.00,,,0.00,Wunderground v.1.13,2013-06-15 23:41:00,
2013-06-15 19:47:00,83.1,63.1,30.07,West,268,3.0,4.0,51,0.00,,,0.00,Wunderground v.1.13,2013-06-15 23:47:00,
2013-06-15 19:53:00,82.9,64.5,30.06,West,268,2.0,4.0,54,0.00,,,0.00,Wunderground v.1.13,2013-06-15 23:53:00,
2013-06-15 19:59:00,82.5,64.7,30.06,West,268,0.0,1.0,55,0.00,,,0.00,Wunderground v.1.13,2013-06-15 23:59:00,
2013-06-15 20:05:00,82.1,65.4,30.07,West,268,0.0,0.0,57,0.00,,,0.00,Wunderground v.1.13,2013-06-16 00:05:00,
2013-06-15 20:11:00,81.7,66.9,30.06,West,268,0.0,0.0,61,0.00,,,0.00,Wunderground v.1.13,2013-06-16 00:11:00,
2013-06-15 20:16:00,81.1,66.8,30.06,West,268,0.0,0.0,62,0.00,,,0.00,Wunderground v.1.13,2013-06-16 00:16:00,
2013-06-15 20:22:00,80.5,66.7,30.06,West,268,0.0,0.0,63,0.00,,,0.00,Wunderground v.1.13,2013-06-16 00:22:00,
2013-06-15 20:28:00,79.9,66.6,30.06,West,268,0.0,0.0,64,0.00,,,0.00,Wunderground v.1.13,2013-06-16 00:28:00,
2013-06-15 20:33:00,79.2,66.9,30.07,West,268,0.0,0.0,66,0.00,,,0.00,Wunderground v.1.13,2013-06-16 00:33:00,
2013-06-15 20:38:00,78.5,66.6,30.07,West,268,0.0,0.0,67,0.00,,,0.00,Wunderground v.1.13,2013-06-16 00:38:00,
2013-06-15 20:44:00,77.2,66.2,30.07,West,268,0.0,0.0,69,0.00,,,0.00,Wunderground v.1.13,2013-06-16 00:44:00,
2013-06-15 20:49:00,76.2,66.1,30.07,West,268,0.0,0.0,71,0.00,,,0.00,Wunderground v.1.13,2013-06-16 00:49:00,
2013-06-15 20:55:00,75.4,65.3,30.07,West,268,0.0,0.0,71,0.00,,,0.00,Wunderground v.1.13,2013-06-16 00:55:00,
2013-06-15 21:00:00,74.7,64.7,30.07,West,268,0.0,0.0,71,0.00,,,0.00,Wunderground v.1.13,2013-06-16 01:00:00,
2013-06-15 21:06:00,74.1,64.5,30.07,West,268,0.0,0.0,72,0.00,,,0.00,Wunderground v.1.13,2013-06-16 01:06:00,
2013-06-15 21:12:00,73.4,64.2,30.07,West,268,0.0,0.0,73,0.00,,,0.00,Wunderground v.1.13,2013-06-16 01:12:00,
2013-06-15 21:18:00,72.7,63.9,30.06,West,268,0.0,0.0,74,0.00,,,0.00,Wunderground v.1.13,2013-06-16 01:18:00,
2013-06-15 21:23:00,72.2,63.8,30.07,West,268,0.0,0.0,75,0.00,,,0.00,Wunderground v.1.13,2013-06-16 01:23:00,
2013-06-15 21:29:00,71.9,63.9,30.07,West,268,0.0,0.0,76,0.00,,,0.00,Wunderground v.1.13,2013-06-16 01:29:00,
2013-06-15 21:35:00,71.3,63.7,30.07,West,268,0.0,0.0,77,0.00,,,0.00,Wunderground v.1.13,2013-06-16 01:35:00,
2013-06-15 21:41:00,70.9,63.7,30.07,West,268,0.0,0.0,78,0.00,,,0.00,Wunderground v.1.13,2013-06-16 01:41:00,
2013-06-15 21:46:00,70.5,63.7,30.08,West,268,0.0,0.0,79,0.00,,,0.00,Wunderground v.1.13,2013-06-16 01:46:00,
2013-06-15 21:52:00,70.0,63.5,30.08,West,268,0.0,0.0,80,0.00,,,0.00,Wunderground v.1.13,2013-06-16 01:52:00,
2013-06-15 21:57:00,69.6,63.5,30.08,West,268,0.0,0.0,81,0.00,,,0.00,Wunderground v.1.13,2013-06-16 01:57:00,
2013-06-15 22:02:00,69.2,63.1,30.08,West,268,0.0,0.0,81,0.00,,,0.00,Wunderground v.1.13,2013-06-16 02:02:00,
2013-06-15 22:08:00,69.0,63.3,30.08,West,268,0.0,0.0,82,0.00,,,0.00,Wunderground v.1.13,2013-06-16 02:08:00,
2013-06-15 22:13:00,68.8,63.1,30.08,West,268,0.0,0.0,82,0.00,,,0.00,Wunderground v.1.13,2013-06-16 02:13:00,
2013-06-15 22:19:00,68.5,63.1,30.09,West,268,0.0,0.0,83,0.00,,,0.00,Wunderground v.1.13,2013-06-16 02:19:00,
2013-06-15 22:25:00,68.3,63.3,30.09,West,268,0.0,0.0,84,0.00,,,0.00,Wunderground v.1.13,2013-06-16 02:25:00,
2013-06-15 22:30:00,68.0,63.0,30.10,West,268,0.0,0.0,84,0.00,,,0.00,Wunderground v.1.13,2013-06-16 02:30:00,
2013-06-15 22:35:00,67.8,63.1,30.10,West,268,0.0,0.0,85,0.00,,,0.00,Wunderground v.1.13,2013-06-16 02:35:00,
2013-06-15 22:41:00,67.5,62.8,30.10,West,268,0.0,0.0,85,0.00,,,0.00,Wunderground v.1.13,2013-06-16 02:41:00,
2013-06-15 22:46:00,67.3,63.0,30.10,West,268,0.0,0.0,86,0.00,,,0.00,Wunderground v.1.13,2013-06-16 02:46:00,
2013-06-15 22:52:00,67.1,62.8,30.10,West,268,0.0,0.0,86,0.00,,,0.00,Wunderground v.1.13,2013-06-16 02:52:00,
2013-06-15 22:58:00,66.8,62.8,30.11,West,268,0.0,0.0,87,0.00,,,0.00,Wunderground v.1.13,2013-06-16 02:58:00,
2013-06-15 23:04:00,66.6,62.6,30.11,West,268,0.0,0.0,87,0.00,,,0.00,Wunderground v.1.13,2013-06-16 03:04:00,
2013-06-15 23:09:00,66.5,62.8,30.10,West,268,0.0,0.0,88,0.00,,,0.00,Wunderground v.1.13,2013-06-16 03:09:00,
2013-06-15 23:15:00,66.3,62.6,30.10,West,268,0.0,0.0,88,0.00,,,0.00,Wunderground v.1.13,2013-06-16 03:15:00,
2013-06-15 23:20:00,66.2,62.5,30.10,West,268,0.0,0.0,88,0.00,,,0.00,Wunderground v.1.13,2013-06-16 03:20:00,
2013-06-15 23:26:00,66.1,62.4,30.10,West,268,0.0,0.0,88,0.00,,,0.00,Wunderground v.1.13,2013-06-16 03:26:00,
2013-06-15 23:31:00,65.9,62.2,30.10,West,268,0.0,0.0,88,0.00,,,0.00,Wunderground v.1.13,2013-06-16 03:31:00,
2013-06-15 23:37:00,65.8,62.1,30.10,West,268,0.0,0.0,88,0.00,,,0.00,Wunderground v.1.13,2013-06-16 03:37:00,
2013-06-15 23:43:00,65.6,62.3,30.09,West,268,0.0,0.0,89,0.00,,,0.00,Wunderground v.1.13,2013-06-16 03:43:00,
2013-06-15 23:49:00,65.4,62.1,30.09,West,268,0.0,0.0,89,0.00,,,0.00,Wunderground v.1.13,2013-06-16 03:49:00,
2013-06-15 23:54:00,65.3,62.0,30.09,West,268,0.0,0.0,89,0.00,,,0.00,Wunderground v.1.13,2013-06-16 03:54:00,